Homer, Indiana
Current Conditions -  °F | °C
As of 3:53 PM on Saturday 25 Oct 2014 (Local Time) from KGEZ Reporting Station
Clear Clear  
Wind Chill: 77°   Ceiling: Unl
Heat Index: 78°   Visibility: 10mi
Dew Point: 52°   Wind: 13mph
Humidity: 42%   Direction: 270°W
Pressure: 29.92"   Gusts: NA
Location:  39.58°N, 85.58°W
Report Text: KGEZ 251953Z AUTO 27011KT 10SM CLR 25/11 A2992 RMK AO2 SLP127 T02500111
Loading
Personal Weather Stations






























Interactive Weather Map
Tropical Storm Tracking
New forecast layout! Learn more

10-Day Weather Forecast

Advertisements
Track Severe Weather on mobile